Time;durP1;ratioP1;P1;durP2;ratioP2;P2;SDS_P1;SDS_P2;PMS_P1;PMS_P2;Temp;Humidity;BMP_temperature;BMP_pressure;BME280_temperature;BME280_humidity;BME280_pressure;Samples;Min_cycle;Max_cycle;Signal;HPM_P1;HPM_P2
2022/07/21 00:01:52;;;;;;;9.27;8.10;;;29.60;99.90;;;;;;5027812;28;20100;-53
2022/07/21 00:04:18;;;;;;;8.32;7.55;;;29.60;99.90;;;;;;5032343;28;20021;-54
2022/07/21 00:06:45;;;;;;;10.75;8.38;;;29.60;99.90;;;;;;5026768;28;20041;-53
2022/07/21 00:09:13;;;;;;;9.23;8.27;;;29.60;99.90;;;;;;5025090;28;20056;-54
2022/07/21 00:11:39;;;;;;;9.27;8.48;;;29.60;99.90;;;;;;5032274;28;20021;-53
2022/07/21 00:14:06;;;;;;;9.20;8.30;;;29.60;99.90;;;;;;5027622;28;20053;-53
2022/07/21 00:16:32;;;;;;;;;;;29.50;99.90;;;;;;5032292;28;20029;-52
2022/07/21 00:18:59;;;;;;;10.73;9.77;;;29.60;99.90;;;;;;5032102;28;19905;-53
2022/07/21 00:21:26;;;;;;;10.85;9.95;;;29.60;99.90;;;;;;5012226;28;20029;-50
2022/07/21 00:23:51;;;;;;;13.15;10.38;;;29.60;99.90;;;;;;4998145;28;20178;-52
2022/07/21 00:26:17;;;;;;;11.27;10.18;;;29.60;99.90;;;;;;5031874;28;20057;-51
2022/07/21 00:28:43;;;;;;;11.35;10.30;;;29.60;99.90;;;;;;5030045;28;20493;-49
2022/07/21 00:31:09;;;;;;;12.68;11.45;;;29.50;99.90;;;;;;5030000;28;20031;-53
2022/07/21 00:33:34;;;;;;;13.45;9.90;;;29.50;99.90;;;;;;5031021;28;20516;-55
2022/07/21 00:36:00;;;;;;;12.20;10.98;;;29.50;99.90;;;;;;5020828;28;20504;-55
2022/07/21 00:38:26;;;;;;;11.60;10.52;;;29.40;99.90;;;;;;5029033;28;20493;-58
2022/07/21 00:40:53;;;;;;;11.52;10.32;;;29.40;99.90;;;;;;5002504;28;20056;-52
2022/07/21 00:43:19;;;;;;;12.48;11.20;;;29.40;99.90;;;;;;5026244;28;20388;-56
2022/07/21 00:45:45;;;;;;;12.15;10.90;;;29.30;99.90;;;;;;5029107;28;20045;-55
2022/07/21 00:48:11;;;;;;;11.43;10.48;;;29.30;99.90;;;;;;5029987;28;20104;-55
2022/07/21 00:50:37;;;;;;;13.55;12.18;;;29.30;99.90;;;;;;5013640;28;20025;-59
2022/07/21 00:53:02;;;;;;;13.02;11.70;;;29.20;99.90;;;;;;5031485;28;20100;-53
2022/07/21 00:55:29;;;;;;;12.57;11.48;;;29.20;99.90;;;;;;5031660;28;20017;-54
2022/07/21 00:57:55;;;;;;;13.73;12.27;;;29.20;99.90;;;;;;5031131;28;20031;-57
2022/07/21 01:00:26;;;;;;;12.75;11.30;;;29.20;99.90;;;;;;5024396;28;20041;-55
2022/07/21 01:02:52;;;;;;;12.45;11.30;;;29.10;99.90;;;;;;5022913;28;20053;-53
2022/07/21 01:05:19;;;;;;;14.65;11.27;;;29.10;99.90;;;;;;5021603;28;20471;-57
2022/07/21 01:07:47;;;;;;;17.45;11.43;;;29.10;99.90;;;;;;5030063;28;20032;-54
2022/07/21 01:10:14;;;;;;;14.48;10.60;;;29.10;99.90;;;;;;5029973;28;20025;-51
2022/07/21 01:12:41;;;;;;;13.02;11.07;;;29.10;99.90;;;;;;5029525;28;20354;-51
2022/07/21 01:15:09;;;;;;;13.53;10.13;;;29.10;99.90;;;;;;5030405;28;20052;-51
2022/07/21 01:17:35;;;;;;;12.48;10.48;;;29.10;99.90;;;;;;5031413;28;20607;-59
2022/07/21 01:20:07;;;;;;;10.82;9.82;;;29.10;99.90;;;;;;5026836;28;20032;-66
2022/07/21 01:22:35;;;;;;;11.63;9.90;;;29.10;99.90;;;;;;5028960;28;20063;-57
2022/07/21 01:25:02;;;;;;;11.85;10.70;;;29.10;99.90;;;;;;5028265;28;20024;-55
2022/07/21 01:27:28;;;;;;;15.93;11.10;;;29.10;99.90;;;;;;5030834;28;20057;-53
2022/07/21 01:29:55;;;;;;;11.60;10.52;;;29.10;99.90;;;;;;5030577;28;20078;-55
2022/07/21 01:32:21;;;;;;;12.63;10.77;;;29.10;99.90;;;;;;5031242;28;20021;-45
2022/07/21 01:34:47;;;;;;;13.63;10.45;;;29.10;99.90;;;;;;5024059;28;20462;-64
2022/07/21 01:37:14;;;;;;;10.98;9.88;;;29.10;99.90;;;;;;5031123;28;20029;-59
2022/07/21 01:42:23;;;;;;;8.20;7.50;;;29.10;99.90;;;;;;5031135;28;20064;-52
2022/07/21 01:44:50;;;;;;;9.00;8.05;;;29.10;99.90;;;;;;5030902;28;20060;-52
2022/07/21 01:47:17;;;;;;;10.15;8.13;;;29.10;99.90;;;;;;5030722;28;20026;-52
2022/07/21 01:49:43;;;;;;;8.00;7.40;;;29.20;99.90;;;;;;5029528;28;20026;-51
2022/07/21 01:52:09;;;;;;;9.07;7.95;;;29.20;99.90;;;;;;5029900;28;20088;-51
2022/07/21 01:54:36;;;;;;;8.70;7.63;;;29.30;99.90;;;;;;5030824;28;20022;-54
2022/07/21 01:57:02;;;;;;;7.88;7.10;;;29.30;99.90;;;;;;5030552;28;20057;-53
2022/07/21 01:59:28;;;;;;;10.30;7.50;;;29.30;99.90;;;;;;5031280;28;20056;-53
2022/07/21 02:01:53;;;;;;;8.00;7.30;;;29.40;99.90;;;;;;5031097;28;20037;-53
2022/07/21 02:04:19;;;;;;;11.32;7.95;;;29.50;99.90;;;;;;5030660;28;20025;-53
2022/07/21 02:06:45;;;;;;;8.07;7.30;;;29.50;99.90;;;;;;5030688;28;20047;-52
2022/07/21 02:09:11;;;;;;;7.68;6.90;;;29.50;99.90;;;;;;5012311;28;20026;-53
2022/07/21 02:11:37;;;;;;;8.57;6.97;;;29.60;99.90;;;;;;5029217;28;20029;-53
2022/07/21 02:14:03;;;;;;;7.97;7.23;;;29.60;99.90;;;;;;5029543;28;20017;-52
2022/07/21 02:16:29;;;;;;;7.53;6.90;;;29.60;99.90;;;;;;5030818;28;20109;-53
2022/07/21 02:18:55;;;;;;;8.20;7.40;;;29.60;99.90;;;;;;5030634;28;20483;-52
2022/07/21 02:21:21;;;;;;;9.55;7.20;;;29.70;99.90;;;;;;5030464;28;20132;-53
2022/07/21 02:23:47;;;;;;;7.30;6.63;;;29.70;99.90;;;;;;5030702;28;20021;-53
2022/07/21 02:26:13;;;;;;;7.18;6.47;;;29.70;99.90;;;;;;5012992;28;20056;-50
2022/07/21 02:28:39;;;;;;;7.35;6.75;;;29.70;99.90;;;;;;5030562;28;20017;-51
2022/07/21 02:31:06;;;;;;;8.88;7.20;;;29.70;99.90;;;;;;5030619;28;20030;-52
2022/07/21 02:33:31;;;;;;;7.63;6.93;;;29.80;99.90;;;;;;5030741;28;20048;-52
2022/07/21 02:35:57;;;;;;;7.13;6.50;;;29.80;99.90;;;;;;5030552;28;20533;-53
2022/07/21 02:38:23;;;;;;;8.25;6.88;;;29.80;99.90;;;;;;5030753;28;20072;-51
2022/07/21 02:40:49;;;;;;;6.93;6.25;;;29.80;99.90;;;;;;5031470;28;20116;-52
2022/07/21 02:43:15;;;;;;;7.05;6.40;;;29.80;99.90;;;;;;5034125;28;20025;-52
2022/07/21 02:45:41;;;;;;;7.25;6.57;;;29.80;99.90;;;;;;5016257;28;20120;-52
2022/07/21 02:48:11;;;;;;;8.05;6.35;;;29.80;99.90;;;;;;5034140;28;20104;-52
2022/07/21 02:50:39;;;;;;;7.57;6.80;;;29.90;99.90;;;;;;5034170;28;20030;-51
2022/07/21 02:53:17;;;;;;;9.40;7.05;;;29.90;99.90;;;;;;5033918;28;20485;-52
2022/07/21 02:55:43;;;;;;;8.20;7.40;;;29.90;99.90;;;;;;5033824;28;20030;-52
2022/07/21 02:58:19;;;;;;;8.60;7.57;;;29.90;99.90;;;;;;5016155;28;20032;-52
2022/07/21 03:00:51;;;;;;;8.20;7.40;;;29.90;99.90;;;;;;5045338;22;20061;-51
2022/07/21 03:03:18;;;;;;;9.77;8.13;;;29.90;99.90;;;;;;5033715;28;20037;-49
2022/07/21 03:05:43;;;;;;;9.57;8.13;;;30.00;99.90;;;;;;5033606;28;20022;-50
2022/07/21 03:08:10;;;;;;;9.40;8.40;;;29.90;99.90;;;;;;5049143;28;20080;-50
2022/07/21 03:10:37;;;;;;;9.82;8.80;;;29.90;99.90;;;;;;5033665;28;20029;-50
2022/07/21 03:13:03;;;;;;;10.20;9.30;;;30.00;99.90;;;;;;5033721;28;20049;-50
2022/07/21 03:15:31;;;;;;;9.38;8.48;;;30.00;99.90;;;;;;5033819;28;20032;-50
2022/07/21 03:17:57;;;;;;;10.40;8.30;;;30.00;99.90;;;;;;5033746;28;20025;-51
2022/07/21 03:20:24;;;;;;;9.90;8.50;;;30.00;99.90;;;;;;5033489;28;20025;-49
2022/07/21 03:22:50;;;;;;;9.15;8.25;;;30.00;99.90;;;;;;5033612;28;20519;-50
2022/07/21 03:25:16;;;;;;;10.18;9.15;;;30.00;99.90;;;;;;5033232;28;20029;-50
2022/07/21 03:27:43;;;;;;;9.32;8.43;;;30.00;99.90;;;;;;5033377;28;20056;-50
2022/07/21 03:30:09;;;;;;;9.77;8.88;;;30.00;99.90;;;;;;5033220;28;20040;-50
2022/07/21 03:32:35;;;;;;;9.85;8.80;;;30.00;99.90;;;;;;5033161;28;20033;-51
2022/07/21 03:35:03;;;;;;;10.07;9.05;;;30.00;99.90;;;;;;5033264;28;20029;-50
2022/07/21 03:37:28;;;;;;;;;;;30.00;99.90;;;;;;5033618;28;20029;-50
2022/07/21 03:39:54;;;;;;;11.30;9.05;;;30.00;99.90;;;;;;5033051;28;20296;-50
2022/07/21 03:42:20;;;;;;;9.82;8.82;;;30.00;99.90;;;;;;5033101;28;20083;-50
2022/07/21 03:44:46;;;;;;;10.50;9.45;;;30.00;99.90;;;;;;5033088;28;20057;-50
2022/07/21 03:47:12;;;;;;;8.75;7.82;;;30.00;99.90;;;;;;5032995;28;20437;-50
2022/07/21 03:49:38;;;;;;;11.00;8.32;;;30.00;99.90;;;;;;5032963;28;20535;-51
2022/07/21 03:52:04;;;;;;;9.85;7.38;;;30.10;99.90;;;;;;5032508;28;20025;-51
2022/07/21 03:54:29;;;;;;;7.80;7.00;;;30.10;99.90;;;;;;5032899;28;20418;-50
2022/07/21 03:56:55;;;;;;;8.25;7.45;;;30.10;99.90;;;;;;5032757;28;20041;-51
2022/07/21 03:59:21;;;;;;;8.50;7.65;;;30.00;99.90;;;;;;5033378;28;20026;-50
2022/07/21 04:01:47;;;;;;;7.65;6.90;;;30.00;99.90;;;;;;5033156;28;20041;-50
2022/07/21 04:04:12;;;;;;;7.00;6.40;;;30.10;99.90;;;;;;5032681;28;20032;-50
2022/07/21 04:06:38;;;;;;;8.05;6.70;;;30.10;99.90;;;;;;5032488;28;20044;-50
2022/07/21 04:09:04;;;;;;;7.90;6.90;;;30.10;99.90;;;;;;5032521;28;20048;-50
2022/07/21 04:11:31;;;;;;;7.70;6.63;;;30.10;99.90;;;;;;5032659;28;20033;-50
2022/07/21 04:13:57;;;;;;;7.10;6.40;;;30.00;99.90;;;;;;5032491;28;20029;-50
2022/07/21 04:16:23;;;;;;;6.93;6.32;;;30.00;99.90;;;;;;5032554;28;20406;-50
2022/07/21 04:18:49;;;;;;;7.90;6.35;;;30.10;99.90;;;;;;5032303;28;20116;-50
2022/07/21 04:21:15;;;;;;;7.45;6.32;;;30.10;99.90;;;;;;5032288;28;20355;-50
2022/07/21 04:23:40;;;;;;;8.25;6.22;;;30.10;99.90;;;;;;5032390;28;20026;-50
2022/07/21 04:26:06;;;;;;;8.85;7.03;;;30.10;99.90;;;;;;5032040;28;20473;-50
2022/07/21 04:28:32;;;;;;;6.57;5.82;;;30.10;99.90;;;;;;5032262;28;20104;-50
2022/07/21 04:30:58;;;;;;;10.80;6.78;;;30.10;99.90;;;;;;5032177;28;20083;-50
2022/07/21 04:33:24;;;;;;;7.25;6.45;;;30.10;99.90;;;;;;5032020;28;20485;-50
2022/07/21 04:35:49;;;;;;;7.05;6.13;;;30.10;99.90;;;;;;5031996;28;20049;-50
2022/07/21 04:38:15;;;;;;;7.25;6.60;;;30.10;99.90;;;;;;5031949;28;20021;-50
2022/07/21 04:40:41;;;;;;;8.00;7.20;;;30.10;99.90;;;;;;5031895;28;20151;-50
2022/07/21 04:43:07;;;;;;;9.02;7.10;;;30.00;99.90;;;;;;5031905;28;20496;-50
2022/07/21 04:45:32;;;;;;;7.00;6.30;;;30.00;99.90;;;;;;5032115;28;20022;-50
2022/07/21 04:47:58;;;;;;;8.60;6.18;;;29.90;99.90;;;;;;5031834;28;20029;-51
2022/07/21 04:50:26;;;;;;;6.97;6.38;;;29.90;99.90;;;;;;5031831;28;20100;-50
2022/07/21 04:52:53;;;;;;;7.82;5.93;;;29.80;99.90;;;;;;5031775;28;20026;-50
2022/07/21 04:55:20;;;;;;;10.88;7.53;;;29.90;99.90;;;;;;5031677;28;20033;-50
2022/07/21 04:57:49;;;;;;;6.97;6.32;;;29.90;99.90;;;;;;5031824;28;20033;-50
2022/07/21 05:00:18;;;;;;;6.45;5.85;;;29.90;99.90;;;;;;5031609;28;20095;-50
2022/07/21 05:02:44;;;;;;;7.28;6.53;;;29.90;99.90;;;;;;5046721;28;20037;-50
2022/07/21 05:05:10;;;;;;;6.68;5.78;;;29.90;99.90;;;;;;5031032;28;20061;-50
2022/07/21 05:07:36;;;;;;;8.85;6.32;;;29.90;99.90;;;;;;5031820;28;20057;-51
2022/07/21 05:10:10;;;;;;;8.25;6.47;;;29.90;99.90;;;;;;5031655;28;20017;-51
2022/07/21 05:12:36;;;;;;;8.02;6.55;;;29.90;99.90;;;;;;5031598;28;20048;-51
2022/07/21 05:15:04;;;;;;;8.05;7.22;;;30.00;99.90;;;;;;5031590;28;20048;-50
2022/07/21 05:17:30;;;;;;;7.30;6.60;;;30.00;99.90;;;;;;5031385;28;20167;-50
2022/07/21 05:19:56;;;;;;;8.40;7.70;;;30.00;99.90;;;;;;5031229;28;20492;-51
2022/07/21 05:22:22;;;;;;;7.93;7.10;;;30.00;99.90;;;;;;5031335;28;20025;-50
2022/07/21 05:24:47;;;;;;;8.75;7.55;;;30.00;99.90;;;;;;5031252;28;20495;-50
2022/07/21 05:27:13;;;;;;;8.50;7.60;;;30.00;99.90;;;;;;5031024;28;20033;-50
2022/07/21 05:29:39;;;;;;;8.85;7.75;;;30.00;99.90;;;;;;5046550;28;20029;-51
2022/07/21 05:32:05;;;;;;;8.48;7.57;;;30.00;99.90;;;;;;5031483;28;20045;-50
2022/07/21 05:34:31;;;;;;;8.65;7.50;;;30.00;99.90;;;;;;5031156;28;20025;-50
2022/07/21 05:36:56;;;;;;;9.38;8.02;;;30.10;99.90;;;;;;5031106;28;20026;-50
2022/07/21 05:39:22;;;;;;;8.95;7.57;;;30.00;99.90;;;;;;5030976;28;20026;-50
2022/07/21 05:41:48;;;;;;;9.20;8.07;;;30.00;99.90;;;;;;5030988;28;20074;-50
2022/07/21 05:44:14;;;;;;;10.57;7.07;;;30.10;99.90;;;;;;5031008;28;20049;-50
2022/07/21 05:46:39;;;;;;;9.65;7.63;;;30.10;99.90;;;;;;5030837;28;20037;-50
2022/07/21 05:49:05;;;;;;;8.45;7.70;;;30.10;99.90;;;;;;5031048;28;20071;-51
2022/07/21 05:51:31;;;;;;;8.70;7.30;;;30.10;99.90;;;;;;5031005;28;20029;-50
2022/07/21 05:53:57;;;;;;;8.13;7.32;;;30.10;99.90;;;;;;5030773;28;20026;-50
2022/07/21 05:56:22;;;;;;;7.95;7.22;;;30.10;99.90;;;;;;5030880;28;20079;-50
2022/07/21 05:58:48;;;;;;;9.00;6.78;;;30.10;99.90;;;;;;5030850;28;20084;-50
2022/07/21 06:01:16;;;;;;;9.18;6.75;;;30.10;99.90;;;;;;5030643;28;20053;-50
2022/07/21 06:03:47;;;;;;;6.82;6.20;;;30.10;99.90;;;;;;5030945;28;20056;-51
2022/07/21 06:06:15;;;;;;;9.02;6.63;;;30.10;99.90;;;;;;5030840;28;20401;-50
2022/07/21 06:08:42;;;;;;;7.20;6.32;;;30.10;99.90;;;;;;5030992;28;20084;-50
2022/07/21 06:11:09;;;;;;;7.37;6.27;;;30.10;99.90;;;;;;5031096;28;20381;-50
2022/07/21 06:13:35;;;;;;;8.25;6.03;;;30.10;99.90;;;;;;5030669;28;20251;-50
2022/07/21 06:16:01;;;;;;;6.90;6.15;;;30.20;99.90;;;;;;5033528;28;20040;-51
2022/07/21 06:18:27;;;;;;;7.50;6.53;;;30.20;99.90;;;;;;5034493;28;20083;-50
2022/07/21 06:20:53;;;;;;;9.65;5.95;;;30.10;99.90;;;;;;5034522;28;20021;-50
2022/07/21 06:23:18;;;;;;;12.25;6.68;;;30.10;99.90;;;;;;5034418;28;20026;-50
2022/07/21 06:25:44;;;;;;;8.07;6.28;;;30.20;99.90;;;;;;5034247;28;20045;-51
2022/07/21 06:28:10;;;;;;;9.20;6.32;;;30.20;99.90;;;;;;5034567;28;20508;-51
2022/07/21 06:30:36;;;;;;;6.55;5.90;;;30.20;99.90;;;;;;5049687;28;20029;-50
2022/07/21 06:33:02;;;;;;;7.72;6.30;;;30.20;99.90;;;;;;5034343;28;20101;-51
2022/07/21 06:35:28;;;;;;;8.07;6.63;;;30.20;99.90;;;;;;5034298;28;20064;-50
2022/07/21 06:37:54;;;;;;;8.30;6.28;;;30.20;99.90;;;;;;5032924;28;20104;-50
2022/07/21 06:40:19;;;;;;;7.50;5.13;;;30.20;99.90;;;;;;5034235;28;20033;-50
2022/07/21 06:42:45;;;;;;;6.63;5.53;;;30.20;99.90;;;;;;5034073;28;20496;-50
2022/07/21 06:45:11;;;;;;;6.78;5.63;;;30.20;99.90;;;;;;5034127;28;20028;-50
2022/07/21 06:47:37;;;;;;;7.10;5.32;;;30.20;99.90;;;;;;5033760;28;20092;-50
2022/07/21 06:50:03;;;;;;;10.00;5.90;;;30.20;99.90;;;;;;5033883;28;20030;-51
2022/07/21 06:52:30;;;;;;;11.45;7.03;;;30.20;99.90;;;;;;5049191;28;20116;-51
2022/07/21 06:54:56;;;;;;;9.00;6.57;;;30.20;99.90;;;;;;5033883;28;20017;-51
2022/07/21 06:57:22;;;;;;;7.68;5.85;;;30.20;99.90;;;;;;5033944;28;20028;-51
2022/07/21 06:59:48;;;;;;;9.38;6.43;;;30.20;99.90;;;;;;5033904;28;20054;-51
2022/07/21 07:02:14;;;;;;;10.25;5.80;;;30.20;99.90;;;;;;5033755;28;20069;-51
2022/07/21 07:04:40;;;;;;;8.15;5.60;;;30.20;99.90;;;;;;5033866;28;20029;-51
2022/07/21 07:07:06;;;;;;;11.35;6.10;;;30.20;99.90;;;;;;5033637;28;20520;-51
2022/07/21 07:09:32;;;;;;;7.82;5.75;;;30.20;99.90;;;;;;5033729;28;20026;-51
2022/07/21 07:12:03;;;;;;;6.80;5.88;;;30.20;99.90;;;;;;5033527;28;20025;-51
2022/07/21 07:14:34;;;;;;;8.77;5.97;;;30.20;99.90;;;;;;5033489;28;20080;-51
2022/07/21 07:17:01;;;;;;;7.45;5.72;;;30.10;99.90;;;;;;5033456;28;20052;-50
2022/07/21 07:19:27;;;;;;;10.73;6.05;;;30.20;99.90;;;;;;5032102;28;20485;-51
2022/07/21 07:21:53;;;;;;;14.77;5.78;;;30.20;99.90;;;;;;5033429;28;20148;-51
2022/07/21 07:24:20;;;;;;;10.95;7.10;;;30.20;99.90;;;;;;5048619;28;20079;-51
2022/07/21 07:26:47;;;;;;;12.50;5.88;;;30.20;99.90;;;;;;5032556;28;20037;-54
2022/07/21 07:29:14;;;;;;;13.45;5.68;;;30.20;99.90;;;;;;5033237;28;20429;-51
2022/07/21 07:31:40;;;;;;;8.70;5.70;;;30.20;99.90;;;;;;5033150;28;20032;-51
2022/07/21 07:34:05;;;;;;;7.43;5.47;;;30.20;99.90;;;;;;5033049;28;20105;-50
2022/07/21 07:36:32;;;;;;;8.35;6.05;;;30.20;99.90;;;;;;5032955;28;20132;-51
2022/07/21 07:38:58;;;;;;;11.30;6.82;;;30.10;99.90;;;;;;5033000;28;20418;-51
2022/07/21 07:41:26;;;;;;;9.60;6.03;;;30.10;99.90;;;;;;5032782;28;20543;-51
2022/07/21 07:43:52;;;;;;;7.50;6.00;;;30.10;99.90;;;;;;5032973;28;20492;-51
2022/07/21 07:46:19;;;;;;;7.47;5.38;;;30.10;99.90;;;;;;5032832;28;20048;-51
2022/07/21 07:48:45;;;;;;;7.32;5.80;;;30.10;99.90;;;;;;5032910;28;20036;-51
2022/07/21 07:51:11;;;;;;;13.35;6.90;;;30.10;99.90;;;;;;5032752;28;20034;-51
2022/07/21 07:53:38;;;;;;;8.75;6.85;;;30.10;99.90;;;;;;5032633;28;20312;-51
2022/07/21 07:56:05;;;;;;;10.30;6.80;;;30.10;99.90;;;;;;5032691;28;20033;-51
2022/07/21 07:58:31;;;;;;;10.68;7.35;;;30.10;99.90;;;;;;5032499;28;20025;-51
2022/07/21 08:00:57;;;;;;;10.35;6.75;;;30.10;99.90;;;;;;5032636;28;20049;-51
2022/07/21 08:03:25;;;;;;;9.45;6.47;;;30.20;99.90;;;;;;5032488;28;20021;-51
2022/07/21 08:05:51;;;;;;;;;;;30.20;99.90;;;;;;5032826;28;20061;-51
2022/07/21 08:08:17;;;;;;;9.95;6.60;;;30.20;99.90;;;;;;5032690;28;19905;-51
2022/07/21 08:10:45;;;;;;;7.97;6.05;;;30.20;99.90;;;;;;5032383;28;20025;-51
2022/07/21 08:13:16;;;;;;;8.90;7.55;;;30.20;99.90;;;;;;5032150;28;20025;-51
2022/07/21 08:15:43;;;;;;;10.27;6.93;;;30.20;99.90;;;;;;5032228;28;20030;-51
2022/07/21 08:18:09;;;;;;;8.23;7.05;;;30.20;99.90;;;;;;5032092;28;20416;-51
2022/07/21 08:20:36;;;;;;;12.53;7.07;;;30.20;99.90;;;;;;5032152;28;20071;-51
2022/07/21 08:23:02;;;;;;;7.50;6.72;;;30.20;99.90;;;;;;5030949;28;20384;-52
2022/07/21 08:25:28;;;;;;;12.73;7.07;;;30.20;99.90;;;;;;5030879;28;20033;-51
2022/07/21 08:27:54;;;;;;;12.02;7.13;;;30.20;99.90;;;;;;5032064;28;20025;-51
2022/07/21 08:30:20;;;;;;;7.80;6.65;;;30.20;99.90;;;;;;5031929;28;20495;-51
2022/07/21 08:32:46;;;;;;;9.65;6.50;;;30.20;99.90;;;;;;5032073;28;20499;-51
2022/07/21 08:35:11;;;;;;;9.38;7.13;;;30.20;99.90;;;;;;5031835;28;20064;-51
2022/07/21 08:37:39;;;;;;;7.60;6.90;;;30.30;99.90;;;;;;5047028;28;20477;-51
2022/07/21 08:40:10;;;;;;;10.32;7.22;;;30.20;99.90;;;;;;5031552;28;20025;-51
2022/07/21 08:42:36;;;;;;;8.80;6.82;;;30.20;99.90;;;;;;5031367;28;20484;-51
2022/07/21 08:45:04;;;;;;;10.63;6.97;;;30.20;99.90;;;;;;5031527;28;20029;-51
2022/07/21 08:47:31;;;;;;;13.18;6.90;;;30.10;99.90;;;;;;5031590;28;20045;-51
2022/07/21 08:49:57;;;;;;;;;;;30.20;99.90;;;;;;5031925;28;20030;-50
2022/07/21 08:52:23;;;;;;;9.27;6.35;;;30.20;99.90;;;;;;5031654;28;20325;-50
2022/07/21 08:54:49;;;;;;;9.13;6.57;;;30.10;99.90;;;;;;5031586;28;20372;-51
2022/07/21 08:57:16;;;;;;;9.10;6.65;;;30.10;99.90;;;;;;5031339;28;20033;-51
2022/07/21 08:59:41;;;;;;;9.57;7.27;;;30.10;99.90;;;;;;5031449;28;20033;-50
2022/07/21 09:02:31;;;;;;;12.98;7.43;;;30.10;99.90;;;;;;5031464;28;20036;-51
2022/07/21 09:04:57;;;;;;;7.88;6.47;;;30.00;99.90;;;;;;5022318;28;20077;-51
2022/07/21 09:07:25;;;;;;;11.07;6.55;;;30.00;99.90;;;;;;5026499;28;20045;-51
2022/07/21 09:10:01;;;;;;;10.40;6.83;;;30.00;99.90;;;;;;5010949;28;20021;-51
2022/07/21 09:12:28;;;;;;;12.27;6.15;;;30.00;99.90;;;;;;5023750;28;20025;-51
2022/07/21 09:15:27;;;;;;;9.27;6.65;;;30.00;99.90;;;;;;5044584;28;20558;-51
2022/07/21 09:18:08;;;;;;;8.90;6.30;;;30.00;99.90;;;;;;5007290;28;20033;-51
2022/07/21 09:20:34;;;;;;;10.50;6.55;;;30.00;99.90;;;;;;5028266;28;20052;-51
2022/07/21 09:23:05;;;;;;;9.40;5.90;;;29.90;99.90;;;;;;5029488;28;20536;-50
2022/07/21 09:25:52;;;;;;;9.02;6.55;;;29.90;99.90;;;;;;5029543;28;20456;-51
2022/07/21 09:28:20;;;;;;;11.77;6.57;;;29.90;99.90;;;;;;5028692;28;20449;-51
2022/07/21 09:30:54;;;;;;;10.40;6.43;;;29.90;99.90;;;;;;5024492;28;20021;-51
2022/07/21 09:33:47;;;;;;;9.60;6.82;;;29.90;99.90;;;;;;5029767;28;20029;-50
2022/07/21 09:36:18;;;;;;;15.10;10.68;;;29.90;99.90;;;;;;5027615;28;20036;-51
2022/07/21 09:38:50;;;;;;;9.60;6.38;;;29.80;99.90;;;;;;5030820;28;20029;-50
2022/07/21 09:41:18;;;;;;;13.43;7.97;;;29.90;99.90;;;;;;5030912;28;20024;-51
2022/07/21 09:43:50;;;;;;;9.00;5.85;;;29.90;99.90;;;;;;5028973;28;20464;-50
2022/07/21 09:46:21;;;;;;;11.85;7.00;;;29.90;99.90;;;;;;5030175;28;20040;-50
2022/07/21 09:48:49;;;;;;;10.60;6.47;;;29.90;99.90;;;;;;5030144;28;20500;-51
2022/07/21 09:51:22;;;;;;;9.55;6.32;;;29.90;99.90;;;;;;5033692;28;20059;-51
2022/07/21 09:53:55;;;;;;;17.17;7.13;;;29.90;99.90;;;;;;5020764;28;20549;-51
2022/07/21 09:56:22;;;;;;;7.40;5.90;;;29.90;99.90;;;;;;5034855;28;20037;-51
2022/07/21 09:58:54;;;;;;;8.20;6.43;;;29.90;99.90;;;;;;5033904;28;20087;-51
2022/07/21 10:01:21;;;;;;;13.88;6.80;;;30.00;99.90;;;;;;5028774;28;20107;-49
2022/07/21 10:03:48;;;;;;;10.38;5.95;;;29.90;99.90;;;;;;5029942;28;20080;-49
2022/07/21 10:06:16;;;;;;;9.98;6.32;;;29.90;99.90;;;;;;5029296;28;20087;-49
2022/07/21 10:08:43;;;;;;;12.38;7.35;;;29.90;99.90;;;;;;5030786;28;20389;-51
2022/07/21 10:11:10;;;;;;;10.30;6.22;;;29.90;99.90;;;;;;5031872;28;20071;-51
2022/07/21 10:13:36;;;;;;;10.45;6.03;;;29.90;99.90;;;;;;5030903;28;20018;-51
2022/07/21 10:16:03;;;;;;;8.52;6.10;;;29.90;99.90;;;;;;5031421;28;20037;-51
2022/07/21 10:18:35;;;;;;;10.98;7.30;;;29.90;99.90;;;;;;5029488;28;20021;-51
2022/07/21 10:21:30;;;;;;;14.35;5.88;;;29.90;99.90;;;;;;5028374;28;20112;-51
2022/07/21 10:23:55;;;;;;;11.98;6.22;;;30.00;99.90;;;;;;5029156;28;20096;-51
2022/07/21 10:26:22;;;;;;;12.80;6.25;;;29.90;99.90;;;;;;5032112;28;20041;-51
2022/07/21 10:28:47;;;;;;;10.02;6.50;;;29.90;99.90;;;;;;5031748;28;20520;-49
2022/07/21 10:31:19;;;;;;;10.55;6.63;;;29.90;99.90;;;;;;5031541;28;20120;-51
2022/07/21 10:33:45;;;;;;;11.65;6.57;;;29.80;99.90;;;;;;5027673;28;20436;-49
2022/07/21 10:36:34;;;;;;;9.23;5.90;;;29.80;99.90;;;;;;5028736;28;20029;-50
2022/07/21 10:39:08;;;;;;;10.57;6.50;;;29.80;99.90;;;;;;5022755;28;20113;-51
2022/07/21 10:41:42;;;;;;;8.75;6.00;;;29.90;99.90;;;;;;5029678;28;20688;-50
2022/07/21 10:44:32;;;;;;;15.20;6.82;;;29.80;99.90;;;;;;5031604;28;20057;-51
2022/07/21 10:47:12;;;;;;;11.32;6.22;;;29.80;99.90;;;;;;5031769;28;20436;-51
2022/07/21 10:49:53;;;;;;;8.63;5.97;;;29.80;99.90;;;;;;5030873;28;20033;-51
2022/07/21 10:52:45;;;;;;;9.45;5.97;;;29.90;99.90;;;;;;5031193;28;20424;-51
2022/07/21 10:55:11;;;;;;;7.38;6.22;;;29.90;99.90;;;;;;5027501;28;20397;-51
2022/07/21 10:57:38;;;;;;;8.40;5.18;;;29.90;99.90;;;;;;5030981;28;20026;-51
2022/07/21 11:00:21;;;;;;;11.45;5.30;;;30.00;99.90;;;;;;5030931;28;20041;-50
2022/07/21 11:03:01;;;;;;;8.02;5.53;;;30.00;99.90;;;;;;5028991;28;20080;-51
2022/07/21 11:05:32;;;;;;;8.45;5.32;;;30.10;99.90;;;;;;5031257;28;20544;-51
2022/07/21 11:08:20;;;;;;;8.65;5.65;;;30.10;99.90;;;;;;5031223;28;20549;-51
2022/07/21 11:10:49;;;;;;;8.38;5.25;;;30.20;99.90;;;;;;5031146;28;20112;-52
2022/07/21 11:13:19;;;;;;;7.15;5.43;;;30.20;99.90;;;;;;5030474;28;20026;-51
2022/07/21 11:16:00;;;;;;;9.48;5.88;;;30.20;99.90;;;;;;5029665;28;20493;-51
2022/07/21 11:18:32;;;;;;;7.35;5.85;;;30.20;99.90;;;;;;5029571;28;20055;-51
2022/07/21 11:21:16;;;;;;;13.82;6.53;;;30.30;99.90;;;;;;5031390;28;20047;-51
2022/07/21 11:23:49;;;;;;;7.47;5.22;;;30.20;99.90;;;;;;5029833;28;20021;-50
2022/07/21 11:26:23;;;;;;;11.40;5.70;;;30.30;99.90;;;;;;5030750;28;20044;-50
2022/07/21 11:29:06;;;;;;;12.60;5.55;;;30.30;99.90;;;;;;5031218;28;20030;-50
2022/07/21 11:31:44;;;;;;;8.35;5.93;;;30.30;99.90;;;;;;5028833;28;20033;-51
2022/07/21 11:34:10;;;;;;;11.07;5.97;;;30.30;99.90;;;;;;5027700;28;20026;-50
2022/07/21 11:36:36;;;;;;;8.07;5.70;;;30.30;99.90;;;;;;5018127;28;20386;-52
2022/07/21 11:39:04;;;;;;;6.57;5.93;;;30.40;99.90;;;;;;5024081;28;20034;-51
2022/07/21 11:41:31;;;;;;;11.63;6.72;;;30.40;99.90;;;;;;5032229;28;20057;-51
2022/07/21 11:43:56;;;;;;;7.25;5.95;;;30.40;99.90;;;;;;5032477;28;20155;-51
2022/07/21 11:46:22;;;;;;;12.38;7.38;;;30.40;99.90;;;;;;5032441;28;20476;-50
2022/07/21 11:48:48;;;;;;;8.63;5.85;;;30.50;99.90;;;;;;5018685;28;20714;-50
2022/07/21 11:51:14;;;;;;;13.60;6.15;;;30.50;99.90;;;;;;5013746;28;20378;-50
2022/07/21 11:53:45;;;;;;;9.85;6.30;;;30.50;99.90;;;;;;5011204;28;20040;-50
2022/07/21 11:56:15;;;;;;;9.27;6.28;;;30.50;99.90;;;;;;5023966;28;20033;-51
2022/07/21 11:58:42;;;;;;;10.45;6.55;;;30.60;99.90;;;;;;5026534;28;20033;-50
2022/07/21 12:01:09;;;;;;;6.57;5.80;;;30.60;99.90;;;;;;5024131;28;20037;-52
2022/07/21 12:03:46;;;;;;;8.63;6.13;;;30.60;99.90;;;;;;5032261;28;20025;-52
2022/07/21 12:06:13;;;;;;;11.02;5.68;;;30.70;99.90;;;;;;5025307;28;20118;-50
2022/07/21 12:08:39;;;;;;;8.35;5.75;;;30.80;99.90;;;;;;5030383;28;20021;-51
2022/07/21 12:11:10;;;;;;;12.73;6.57;;;30.80;99.90;;;;;;5032042;28;20056;-51
2022/07/21 12:13:52;;;;;;;8.32;5.63;;;30.90;99.90;;;;;;5027971;28;20452;-49
2022/07/21 12:16:18;;;;;;;9.52;5.65;;;30.90;99.90;;;;;;5015017;28;20021;-50
2022/07/21 12:18:44;;;;;;;5.93;4.68;;;30.90;99.90;;;;;;5017646;28;20048;-49
2022/07/21 12:21:09;;;;;;;9.02;5.57;;;31.00;99.90;;;;;;5022423;28;20025;-49
2022/07/21 12:23:36;;;;;;;8.15;5.53;;;30.90;99.90;;;;;;5026792;28;20025;-49
2022/07/21 12:26:03;;;;;;;8.27;5.78;;;30.80;99.90;;;;;;5031581;28;20048;-50
2022/07/21 12:28:46;;;;;;;8.73;5.67;;;30.80;99.90;;;;;;5027471;28;20079;-51
2022/07/21 12:31:20;;;;;;;11.63;5.68;;;30.70;99.90;;;;;;5022835;28;20253;-50
2022/07/21 12:33:47;;;;;;;9.38;5.75;;;30.60;99.90;;;;;;5030346;28;20029;-54
2022/07/21 12:36:13;;;;;;;8.07;5.28;;;30.60;99.90;;;;;;5031264;28;20033;-50
2022/07/21 12:38:40;;;;;;;9.20;5.18;;;30.60;99.90;;;;;;5031182;28;20033;-49
2022/07/21 12:41:08;;;;;;;5.70;5.15;;;30.50;99.90;;;;;;5031448;28;20304;-50
2022/07/21 12:43:34;;;;;;;7.78;5.32;;;30.60;99.90;;;;;;5030902;28;20026;-51
2022/07/21 12:46:08;;;;;;;6.90;5.13;;;30.50;99.90;;;;;;5022311;28;20494;-50
2022/07/21 12:48:38;;;;;;;8.95;5.47;;;30.40;99.90;;;;;;5011681;28;20030;-50
2022/07/21 12:51:03;;;;;;;8.55;5.20;;;30.40;99.90;;;;;;5030949;28;20022;-50